sensor_id;sensor_type;location;lat;lon;timestamp;P1;durP1;ratioP1;P2;durP2;ratioP2
22937;SDS011;11634;42.734;23.298;2023-04-16T00:00:35;7.68;;;3.33;;
22937;SDS011;11634;42.734;23.298;2023-04-16T00:03:01;5.95;;;3.42;;
22937;SDS011;11634;42.734;23.298;2023-04-16T00:05:30;9.80;;;3.53;;
22937;SDS011;11634;42.734;23.298;2023-04-16T00:07:58;5.90;;;3.40;;
22937;SDS011;11634;42.734;23.298;2023-04-16T00:10:23;8.50;;;3.95;;
22937;SDS011;11634;42.734;23.298;2023-04-16T00:12:57;6.85;;;3.80;;
22937;SDS011;11634;42.734;23.298;2023-04-16T00:15:23;5.00;;;3.30;;
22937;SDS011;11634;42.734;23.298;2023-04-16T00:17:49;6.38;;;3.50;;
22937;SDS011;11634;42.734;23.298;2023-04-16T00:20:18;6.80;;;3.65;;
22937;SDS011;11634;42.734;23.298;2023-04-16T00:22:47;9.77;;;3.78;;
22937;SDS011;11634;42.734;23.298;2023-04-16T00:25:16;8.20;;;4.25;;
22937;SDS011;11634;42.734;23.298;2023-04-16T00:27:59;6.88;;;4.22;;
22937;SDS011;11634;42.734;23.298;2023-04-16T00:30:35;6.90;;;4.47;;
22937;SDS011;11634;42.734;23.298;2023-04-16T00:33:01;6.55;;;4.00;;
22937;SDS011;11634;42.734;23.298;2023-04-16T00:35:29;9.57;;;4.07;;
22937;SDS011;11634;42.734;23.298;2023-04-16T00:38:00;8.57;;;3.88;;
22937;SDS011;11634;42.734;23.298;2023-04-16T00:40:29;6.65;;;4.47;;
22937;SDS011;11634;42.734;23.298;2023-04-16T00:42:58;8.30;;;4.60;;
22937;SDS011;11634;42.734;23.298;2023-04-16T00:45:27;8.85;;;4.88;;
22937;SDS011;11634;42.734;23.298;2023-04-16T00:47:55;8.55;;;4.80;;
22937;SDS011;11634;42.734;23.298;2023-04-16T00:50:27;7.30;;;4.47;;
22937;SDS011;11634;42.734;23.298;2023-04-16T00:53:02;11.73;;;4.40;;
22937;SDS011;11634;42.734;23.298;2023-04-16T00:55:28;7.70;;;4.50;;
22937;SDS011;11634;42.734;23.298;2023-04-16T00:58:04;8.13;;;4.22;;
22937;SDS011;11634;42.734;23.298;2023-04-16T01:00:33;6.47;;;3.58;;
22937;SDS011;11634;42.734;23.298;2023-04-16T01:03:03;7.18;;;3.60;;
22937;SDS011;11634;42.734;23.298;2023-04-16T01:05:36;6.32;;;3.63;;
22937;SDS011;11634;42.734;23.298;2023-04-16T01:08:05;6.88;;;3.70;;
22937;SDS011;11634;42.734;23.298;2023-04-16T01:10:31;6.93;;;3.28;;
22937;SDS011;11634;42.734;23.298;2023-04-16T01:12:58;8.80;;;3.90;;
22937;SDS011;11634;42.734;23.298;2023-04-16T01:15:27;7.60;;;3.40;;
22937;SDS011;11634;42.734;23.298;2023-04-16T01:17:54;8.93;;;3.42;;
22937;SDS011;11634;42.734;23.298;2023-04-16T01:20:22;5.47;;;3.42;;
22937;SDS011;11634;42.734;23.298;2023-04-16T01:22:51;8.00;;;3.65;;
22937;SDS011;11634;42.734;23.298;2023-04-16T01:25:17;7.13;;;3.97;;
22937;SDS011;11634;42.734;23.298;2023-04-16T01:27:44;6.07;;;2.92;;
22937;SDS011;11634;42.734;23.298;2023-04-16T01:30:28;5.53;;;3.30;;
22937;SDS011;11634;42.734;23.298;2023-04-16T01:33:14;5.18;;;2.92;;
22937;SDS011;11634;42.734;23.298;2023-04-16T01:35:42;6.22;;;3.03;;
22937;SDS011;11634;42.734;23.298;2023-04-16T01:38:16;5.28;;;3.25;;
22937;SDS011;11634;42.734;23.298;2023-04-16T01:40:54;8.70;;;3.10;;
22937;SDS011;11634;42.734;23.298;2023-04-16T01:43:20;8.13;;;3.13;;
22937;SDS011;11634;42.734;23.298;2023-04-16T01:48:42;6.80;;;3.22;;
22937;SDS011;11634;42.734;23.298;2023-04-16T01:51:11;8.50;;;3.55;;
22937;SDS011;11634;42.734;23.298;2023-04-16T01:53:46;6.22;;;3.38;;
22937;SDS011;11634;42.734;23.298;2023-04-16T01:56:13;6.55;;;3.20;;
22937;SDS011;11634;42.734;23.298;2023-04-16T01:58:45;7.25;;;3.35;;
22937;SDS011;11634;42.734;23.298;2023-04-16T02:01:15;6.05;;;3.03;;
22937;SDS011;11634;42.734;23.298;2023-04-16T02:03:47;5.85;;;3.33;;
22937;SDS011;11634;42.734;23.298;2023-04-16T02:06:13;5.43;;;3.20;;
22937;SDS011;11634;42.734;23.298;2023-04-16T02:08:39;5.97;;;3.20;;
22937;SDS011;11634;42.734;23.298;2023-04-16T02:11:05;9.85;;;3.90;;
22937;SDS011;11634;42.734;23.298;2023-04-16T02:13:32;10.10;;;3.60;;
22937;SDS011;11634;42.734;23.298;2023-04-16T02:15:57;6.68;;;3.65;;
22937;SDS011;11634;42.734;23.298;2023-04-16T02:18:37;7.85;;;3.65;;
22937;SDS011;11634;42.734;23.298;2023-04-16T02:21:04;8.23;;;3.60;;
22937;SDS011;11634;42.734;23.298;2023-04-16T02:23:31;6.25;;;3.58;;
22937;SDS011;11634;42.734;23.298;2023-04-16T02:25:58;5.97;;;3.60;;
22937;SDS011;11634;42.734;23.298;2023-04-16T02:28:24;7.47;;;3.72;;
22937;SDS011;11634;42.734;23.298;2023-04-16T02:30:49;6.30;;;3.53;;
22937;SDS011;11634;42.734;23.298;2023-04-16T02:33:16;6.00;;;3.60;;
22937;SDS011;11634;42.734;23.298;2023-04-16T02:35:57;7.53;;;3.80;;
22937;SDS011;11634;42.734;23.298;2023-04-16T02:38:26;7.03;;;3.70;;
22937;SDS011;11634;42.734;23.298;2023-04-16T02:40:51;6.25;;;3.10;;
22937;SDS011;11634;42.734;23.298;2023-04-16T02:43:17;8.35;;;3.65;;
22937;SDS011;11634;42.734;23.298;2023-04-16T02:45:43;6.95;;;3.60;;
22937;SDS011;11634;42.734;23.298;2023-04-16T02:48:09;9.77;;;3.90;;
22937;SDS011;11634;42.734;23.298;2023-04-16T02:50:34;9.38;;;3.40;;
22937;SDS011;11634;42.734;23.298;2023-04-16T02:53:00;7.30;;;4.00;;
22937;SDS011;11634;42.734;23.298;2023-04-16T02:55:25;5.82;;;3.50;;
22937;SDS011;11634;42.734;23.298;2023-04-16T02:57:52;6.13;;;3.60;;
22937;SDS011;11634;42.734;23.298;2023-04-16T03:00:18;7.53;;;4.85;;
22937;SDS011;11634;42.734;23.298;2023-04-16T03:02:43;8.30;;;4.70;;
22937;SDS011;11634;42.734;23.298;2023-04-16T03:05:09;6.97;;;3.95;;
22937;SDS011;11634;42.734;23.298;2023-04-16T03:07:36;6.55;;;3.60;;
22937;SDS011;11634;42.734;23.298;2023-04-16T03:10:03;9.40;;;3.83;;
22937;SDS011;11634;42.734;23.298;2023-04-16T03:12:31;5.82;;;3.30;;
22937;SDS011;11634;42.734;23.298;2023-04-16T03:14:58;10.90;;;4.32;;
22937;SDS011;11634;42.734;23.298;2023-04-16T03:17:23;9.57;;;4.57;;
22937;SDS011;11634;42.734;23.298;2023-04-16T03:19:49;8.57;;;4.10;;
22937;SDS011;11634;42.734;23.298;2023-04-16T03:22:15;8.57;;;3.50;;
22937;SDS011;11634;42.734;23.298;2023-04-16T03:24:41;5.90;;;4.40;;
22937;SDS011;11634;42.734;23.298;2023-04-16T03:27:06;5.50;;;3.50;;
22937;SDS011;11634;42.734;23.298;2023-04-16T03:29:34;12.48;;;3.80;;
22937;SDS011;11634;42.734;23.298;2023-04-16T03:32:01;7.85;;;3.88;;
22937;SDS011;11634;42.734;23.298;2023-04-16T03:34:26;8.00;;;4.28;;
22937;SDS011;11634;42.734;23.298;2023-04-16T03:36:52;7.53;;;3.70;;
22937;SDS011;11634;42.734;23.298;2023-04-16T03:39:17;5.28;;;4.05;;
22937;SDS011;11634;42.734;23.298;2023-04-16T03:41:43;7.55;;;3.67;;
22937;SDS011;11634;42.734;23.298;2023-04-16T03:44:09;6.57;;;3.50;;
22937;SDS011;11634;42.734;23.298;2023-04-16T03:46:34;5.65;;;3.65;;
22937;SDS011;11634;42.734;23.298;2023-04-16T03:49:00;4.43;;;2.83;;
22937;SDS011;11634;42.734;23.298;2023-04-16T03:51:27;6.55;;;3.50;;
22937;SDS011;11634;42.734;23.298;2023-04-16T03:53:52;6.65;;;4.00;;
22937;SDS011;11634;42.734;23.298;2023-04-16T03:56:18;7.30;;;3.92;;
22937;SDS011;11634;42.734;23.298;2023-04-16T03:58:44;7.50;;;3.78;;
22937;SDS011;11634;42.734;23.298;2023-04-16T04:01:12;6.57;;;3.88;;
22937;SDS011;11634;42.734;23.298;2023-04-16T04:03:38;9.18;;;3.60;;
22937;SDS011;11634;42.734;23.298;2023-04-16T04:06:07;6.35;;;3.08;;
22937;SDS011;11634;42.734;23.298;2023-04-16T04:08:33;7.57;;;2.72;;
22937;SDS011;11634;42.734;23.298;2023-04-16T04:10:59;7.53;;;2.78;;
22937;SDS011;11634;42.734;23.298;2023-04-16T04:13:25;7.18;;;2.70;;
22937;SDS011;11634;42.734;23.298;2023-04-16T04:15:51;6.05;;;3.10;;
22937;SDS011;11634;42.734;23.298;2023-04-16T04:18:17;5.07;;;3.10;;
22937;SDS011;11634;42.734;23.298;2023-04-16T04:20:44;7.20;;;3.60;;
22937;SDS011;11634;42.734;23.298;2023-04-16T04:23:13;6.15;;;3.20;;
22937;SDS011;11634;42.734;23.298;2023-04-16T04:25:40;7.90;;;3.65;;
22937;SDS011;11634;42.734;23.298;2023-04-16T04:28:07;7.22;;;3.13;;
22937;SDS011;11634;42.734;23.298;2023-04-16T04:30:33;9.13;;;3.40;;
22937;SDS011;11634;42.734;23.298;2023-04-16T04:33:00;9.60;;;3.33;;
22937;SDS011;11634;42.734;23.298;2023-04-16T04:35:26;7.18;;;3.33;;
22937;SDS011;11634;42.734;23.298;2023-04-16T04:37:52;8.00;;;3.58;;
22937;SDS011;11634;42.734;23.298;2023-04-16T04:40:19;8.85;;;4.22;;
22937;SDS011;11634;42.734;23.298;2023-04-16T04:42:45;5.47;;;3.55;;
22937;SDS011;11634;42.734;23.298;2023-04-16T04:45:10;7.90;;;4.13;;
22937;SDS011;11634;42.734;23.298;2023-04-16T04:47:36;8.55;;;4.30;;
22937;SDS011;11634;42.734;23.298;2023-04-16T04:50:05;8.75;;;4.05;;
22937;SDS011;11634;42.734;23.298;2023-04-16T04:52:32;6.45;;;4.13;;
22937;SDS011;11634;42.734;23.298;2023-04-16T04:54:57;7.55;;;4.10;;
22937;SDS011;11634;42.734;23.298;2023-04-16T04:57:23;6.55;;;4.22;;
22937;SDS011;11634;42.734;23.298;2023-04-16T04:59:52;6.57;;;4.10;;
22937;SDS011;11634;42.734;23.298;2023-04-16T05:02:18;7.88;;;4.32;;
22937;SDS011;11634;42.734;23.298;2023-04-16T05:04:43;9.57;;;4.25;;
22937;SDS011;11634;42.734;23.298;2023-04-16T05:07:09;13.80;;;4.43;;
22937;SDS011;11634;42.734;23.298;2023-04-16T05:09:34;7.78;;;4.35;;
22937;SDS011;11634;42.734;23.298;2023-04-16T05:12:00;6.25;;;3.90;;
22937;SDS011;11634;42.734;23.298;2023-04-16T05:14:25;12.25;;;3.38;;
22937;SDS011;11634;42.734;23.298;2023-04-16T05:16:51;10.23;;;3.90;;
22937;SDS011;11634;42.734;23.298;2023-04-16T05:19:17;5.90;;;3.20;;
22937;SDS011;11634;42.734;23.298;2023-04-16T05:21:42;5.03;;;2.97;;
22937;SDS011;11634;42.734;23.298;2023-04-16T05:24:08;7.78;;;3.35;;
22937;SDS011;11634;42.734;23.298;2023-04-16T05:26:33;5.13;;;3.35;;
22937;SDS011;11634;42.734;23.298;2023-04-16T05:28:59;10.30;;;4.32;;
22937;SDS011;11634;42.734;23.298;2023-04-16T05:31:26;8.73;;;4.28;;
22937;SDS011;11634;42.734;23.298;2023-04-16T05:33:52;7.60;;;4.20;;
22937;SDS011;11634;42.734;23.298;2023-04-16T05:36:18;9.90;;;4.88;;
22937;SDS011;11634;42.734;23.298;2023-04-16T05:38:44;8.50;;;4.45;;
22937;SDS011;11634;42.734;23.298;2023-04-16T05:41:09;6.40;;;4.07;;
22937;SDS011;11634;42.734;23.298;2023-04-16T05:43:35;7.32;;;4.05;;
22937;SDS011;11634;42.734;23.298;2023-04-16T05:46:00;6.18;;;3.92;;
22937;SDS011;11634;42.734;23.298;2023-04-16T05:48:26;10.30;;;4.00;;
22937;SDS011;11634;42.734;23.298;2023-04-16T05:50:51;6.93;;;4.20;;
22937;SDS011;11634;42.734;23.298;2023-04-16T05:53:20;7.30;;;3.97;;
22937;SDS011;11634;42.734;23.298;2023-04-16T05:55:48;9.43;;;4.35;;
22937;SDS011;11634;42.734;23.298;2023-04-16T05:58:14;7.55;;;4.05;;
22937;SDS011;11634;42.734;23.298;2023-04-16T06:00:39;5.80;;;3.63;;
22937;SDS011;11634;42.734;23.298;2023-04-16T06:03:05;8.00;;;3.67;;
22937;SDS011;11634;42.734;23.298;2023-04-16T06:05:32;8.68;;;3.55;;
22937;SDS011;11634;42.734;23.298;2023-04-16T06:07:57;3.80;;;2.80;;
22937;SDS011;11634;42.734;23.298;2023-04-16T06:10:25;5.60;;;2.90;;
22937;SDS011;11634;42.734;23.298;2023-04-16T06:12:52;6.55;;;3.30;;
22937;SDS011;11634;42.734;23.298;2023-04-16T06:15:18;5.10;;;2.45;;
22937;SDS011;11634;42.734;23.298;2023-04-16T06:17:43;4.80;;;2.40;;
22937;SDS011;11634;42.734;23.298;2023-04-16T06:20:09;4.47;;;2.50;;
22937;SDS011;11634;42.734;23.298;2023-04-16T06:22:36;5.40;;;3.03;;
22937;SDS011;11634;42.734;23.298;2023-04-16T06:25:01;7.25;;;2.92;;
22937;SDS011;11634;42.734;23.298;2023-04-16T06:27:27;5.28;;;3.05;;
22937;SDS011;11634;42.734;23.298;2023-04-16T06:29:52;4.00;;;2.70;;
22937;SDS011;11634;42.734;23.298;2023-04-16T06:32:18;7.68;;;3.45;;
22937;SDS011;11634;42.734;23.298;2023-04-16T06:34:44;3.92;;;2.83;;
22937;SDS011;11634;42.734;23.298;2023-04-16T06:37:11;4.68;;;3.25;;
22937;SDS011;11634;42.734;23.298;2023-04-16T06:39:38;6.13;;;4.10;;
22937;SDS011;11634;42.734;23.298;2023-04-16T06:42:04;7.32;;;3.10;;
22937;SDS011;11634;42.734;23.298;2023-04-16T06:44:29;6.90;;;2.90;;
22937;SDS011;11634;42.734;23.298;2023-04-16T06:46:58;8.15;;;3.50;;
22937;SDS011;11634;42.734;23.298;2023-04-16T06:49:23;6.68;;;3.20;;
22937;SDS011;11634;42.734;23.298;2023-04-16T06:51:49;7.32;;;3.17;;
22937;SDS011;11634;42.734;23.298;2023-04-16T06:54:15;5.93;;;3.33;;
22937;SDS011;11634;42.734;23.298;2023-04-16T06:56:41;7.22;;;3.30;;
22937;SDS011;11634;42.734;23.298;2023-04-16T06:59:15;6.68;;;3.40;;
22937;SDS011;11634;42.734;23.298;2023-04-16T07:01:41;7.97;;;3.28;;
22937;SDS011;11634;42.734;23.298;2023-04-16T07:04:06;8.38;;;3.83;;
22937;SDS011;11634;42.734;23.298;2023-04-16T07:06:32;7.60;;;3.80;;
22937;SDS011;11634;42.734;23.298;2023-04-16T07:08:57;7.68;;;4.53;;
22937;SDS011;11634;42.734;23.298;2023-04-16T07:11:23;8.10;;;4.18;;
22937;SDS011;11634;42.734;23.298;2023-04-16T07:13:50;8.60;;;4.30;;
22937;SDS011;11634;42.734;23.298;2023-04-16T07:16:17;6.70;;;4.00;;
22937;SDS011;11634;42.734;23.298;2023-04-16T07:18:42;6.13;;;3.90;;
22937;SDS011;11634;42.734;23.298;2023-04-16T07:21:08;8.30;;;4.57;;
22937;SDS011;11634;42.734;23.298;2023-04-16T07:23:34;5.60;;;3.75;;
22937;SDS011;11634;42.734;23.298;2023-04-16T07:26:01;12.05;;;6.65;;
22937;SDS011;11634;42.734;23.298;2023-04-16T07:28:27;13.45;;;6.25;;
22937;SDS011;11634;42.734;23.298;2023-04-16T07:30:53;7.45;;;6.03;;
22937;SDS011;11634;42.734;23.298;2023-04-16T07:33:18;9.15;;;6.10;;
22937;SDS011;11634;42.734;23.298;2023-04-16T07:35:44;10.23;;;6.60;;
22937;SDS011;11634;42.734;23.298;2023-04-16T07:38:10;8.13;;;6.07;;
22937;SDS011;11634;42.734;23.298;2023-04-16T07:40:35;9.38;;;5.95;;
22937;SDS011;11634;42.734;23.298;2023-04-16T07:43:01;9.15;;;5.30;;
22937;SDS011;11634;42.734;23.298;2023-04-16T07:45:27;8.75;;;4.50;;
22937;SDS011;11634;42.734;23.298;2023-04-16T07:47:52;9.55;;;4.10;;
22937;SDS011;11634;42.734;23.298;2023-04-16T07:50:21;6.68;;;4.07;;
22937;SDS011;11634;42.734;23.298;2023-04-16T07:52:48;6.47;;;3.50;;
22937;SDS011;11634;42.734;23.298;2023-04-16T07:55:14;5.50;;;3.10;;
22937;SDS011;11634;42.734;23.298;2023-04-16T07:57:40;5.80;;;3.08;;
22937;SDS011;11634;42.734;23.298;2023-04-16T08:00:08;6.80;;;3.42;;
22937;SDS011;11634;42.734;23.298;2023-04-16T08:02:41;6.28;;;3.53;;
22937;SDS011;11634;42.734;23.298;2023-04-16T08:05:07;5.35;;;3.53;;
22937;SDS011;11634;42.734;23.298;2023-04-16T08:07:33;5.25;;;3.33;;
22937;SDS011;11634;42.734;23.298;2023-04-16T08:09:59;5.53;;;3.95;;
22937;SDS011;11634;42.734;23.298;2023-04-16T08:12:25;5.32;;;3.13;;
22937;SDS011;11634;42.734;23.298;2023-04-16T08:14:50;7.40;;;3.38;;
22937;SDS011;11634;42.734;23.298;2023-04-16T08:17:16;7.53;;;3.75;;
22937;SDS011;11634;42.734;23.298;2023-04-16T08:19:42;6.93;;;4.22;;
22937;SDS011;11634;42.734;23.298;2023-04-16T08:22:11;5.35;;;3.88;;
22937;SDS011;11634;42.734;23.298;2023-04-16T08:24:37;6.50;;;3.58;;
22937;SDS011;11634;42.734;23.298;2023-04-16T08:27:03;5.75;;;3.17;;
22937;SDS011;11634;42.734;23.298;2023-04-16T08:29:29;7.25;;;3.55;;
22937;SDS011;11634;42.734;23.298;2023-04-16T08:31:55;5.40;;;2.72;;
22937;SDS011;11634;42.734;23.298;2023-04-16T08:34:20;5.07;;;3.13;;
22937;SDS011;11634;42.734;23.298;2023-04-16T08:36:46;6.55;;;3.05;;
22937;SDS011;11634;42.734;23.298;2023-04-16T08:39:13;8.07;;;3.70;;
22937;SDS011;11634;42.734;23.298;2023-04-16T08:41:42;8.10;;;3.30;;
22937;SDS011;11634;42.734;23.298;2023-04-16T08:44:10;7.90;;;3.97;;
22937;SDS011;11634;42.734;23.298;2023-04-16T08:46:44;9.98;;;3.60;;
22937;SDS011;11634;42.734;23.298;2023-04-16T08:49:14;12.20;;;4.53;;
22937;SDS011;11634;42.734;23.298;2023-04-16T08:51:42;8.38;;;3.83;;
22937;SDS011;11634;42.734;23.298;2023-04-16T08:56:49;6.47;;;3.88;;
22937;SDS011;11634;42.734;23.298;2023-04-16T08:59:18;10.00;;;3.95;;
22937;SDS011;11634;42.734;23.298;2023-04-16T09:01:44;5.38;;;3.50;;
22937;SDS011;11634;42.734;23.298;2023-04-16T09:04:13;7.07;;;3.35;;
22937;SDS011;11634;42.734;23.298;2023-04-16T09:06:41;11.00;;;3.67;;
22937;SDS011;11634;42.734;23.298;2023-04-16T09:09:07;3.70;;;2.22;;
22937;SDS011;11634;42.734;23.298;2023-04-16T09:11:33;4.30;;;1.90;;
22937;SDS011;11634;42.734;23.298;2023-04-16T09:13:59;7.20;;;2.47;;
22937;SDS011;11634;42.734;23.298;2023-04-16T09:16:27;4.40;;;2.15;;
22937;SDS011;11634;42.734;23.298;2023-04-16T09:18:58;3.60;;;2.30;;
22937;SDS011;11634;42.734;23.298;2023-04-16T09:21:25;5.18;;;2.30;;
22937;SDS011;11634;42.734;23.298;2023-04-16T09:23:53;5.47;;;2.20;;
22937;SDS011;11634;42.734;23.298;2023-04-16T09:26:20;3.42;;;1.85;;
22937;SDS011;11634;42.734;23.298;2023-04-16T09:28:48;6.10;;;2.53;;
22937;SDS011;11634;42.734;23.298;2023-04-16T09:31:16;5.28;;;2.30;;
22937;SDS011;11634;42.734;23.298;2023-04-16T09:33:59;4.72;;;1.90;;
22937;SDS011;11634;42.734;23.298;2023-04-16T09:36:26;6.28;;;2.20;;
22937;SDS011;11634;42.734;23.298;2023-04-16T09:38:52;6.05;;;2.28;;
22937;SDS011;11634;42.734;23.298;2023-04-16T09:41:18;5.30;;;2.35;;
22937;SDS011;11634;42.734;23.298;2023-04-16T09:43:52;3.28;;;2.38;;
22937;SDS011;11634;42.734;23.298;2023-04-16T09:46:23;3.85;;;2.10;;
22937;SDS011;11634;42.734;23.298;2023-04-16T09:48:53;4.10;;;2.40;;
22937;SDS011;11634;42.734;23.298;2023-04-16T09:51:19;4.38;;;2.50;;
22937;SDS011;11634;42.734;23.298;2023-04-16T09:53:46;4.55;;;2.45;;
22937;SDS011;11634;42.734;23.298;2023-04-16T09:56:16;3.67;;;2.40;;
22937;SDS011;11634;42.734;23.298;2023-04-16T09:58:42;10.00;;;2.60;;
22937;SDS011;11634;42.734;23.298;2023-04-16T10:01:10;4.63;;;2.30;;
22937;SDS011;11634;42.734;23.298;2023-04-16T10:03:40;3.70;;;2.05;;
22937;SDS011;11634;42.734;23.298;2023-04-16T10:08:32;4.95;;;2.35;;
22937;SDS011;11634;42.734;23.298;2023-04-16T10:10:58;5.90;;;2.40;;
22937;SDS011;11634;42.734;23.298;2023-04-16T10:13:24;3.65;;;2.05;;
22937;SDS011;11634;42.734;23.298;2023-04-16T10:15:55;4.22;;;1.95;;
22937;SDS011;11634;42.734;23.298;2023-04-16T10:18:22;4.80;;;2.13;;
22937;SDS011;11634;42.734;23.298;2023-04-16T10:20:48;5.32;;;2.20;;
22937;SDS011;11634;42.734;23.298;2023-04-16T10:23:15;5.45;;;1.88;;
22937;SDS011;11634;42.734;23.298;2023-04-16T10:25:41;3.80;;;1.90;;
22937;SDS011;11634;42.734;23.298;2023-04-16T10:28:10;3.80;;;2.10;;
22937;SDS011;11634;42.734;23.298;2023-04-16T10:30:37;6.47;;;2.00;;
22937;SDS011;11634;42.734;23.298;2023-04-16T10:33:04;6.93;;;2.60;;
22937;SDS011;11634;42.734;23.298;2023-04-16T10:35:30;6.07;;;2.50;;
22937;SDS011;11634;42.734;23.298;2023-04-16T10:37:56;4.78;;;2.40;;
22937;SDS011;11634;42.734;23.298;2023-04-16T10:40:22;5.88;;;2.38;;
22937;SDS011;11634;42.734;23.298;2023-04-16T10:42:58;2.42;;;1.90;;
22937;SDS011;11634;42.734;23.298;2023-04-16T10:45:38;6.80;;;2.25;;
22937;SDS011;11634;42.734;23.298;2023-04-16T10:48:22;5.10;;;1.90;;
22937;SDS011;11634;42.734;23.298;2023-04-16T10:50:55;5.63;;;2.15;;
22937;SDS011;11634;42.734;23.298;2023-04-16T10:53:23;4.03;;;2.05;;
22937;SDS011;11634;42.734;23.298;2023-04-16T10:58:29;3.33;;;1.90;;
22937;SDS011;11634;42.734;23.298;2023-04-16T11:00:59;7.13;;;2.60;;
22937;SDS011;11634;42.734;23.298;2023-04-16T11:03:31;5.32;;;2.17;;
22937;SDS011;11634;42.734;23.298;2023-04-16T11:08:49;4.43;;;2.05;;
22937;SDS011;11634;42.734;23.298;2023-04-16T11:11:25;5.07;;;1.85;;
22937;SDS011;11634;42.734;23.298;2023-04-16T11:13:53;5.70;;;2.05;;
22937;SDS011;11634;42.734;23.298;2023-04-16T11:16:21;5.75;;;2.38;;
22937;SDS011;11634;42.734;23.298;2023-04-16T11:18:46;4.25;;;1.92;;
22937;SDS011;11634;42.734;23.298;2023-04-16T11:21:12;4.20;;;2.00;;
22937;SDS011;11634;42.734;23.298;2023-04-16T11:23:44;4.32;;;2.00;;
22937;SDS011;11634;42.734;23.298;2023-04-16T11:26:27;4.00;;;2.03;;
22937;SDS011;11634;42.734;23.298;2023-04-16T11:28:55;6.75;;;1.80;;
22937;SDS011;11634;42.734;23.298;2023-04-16T11:31:21;3.22;;;1.80;;
22937;SDS011;11634;42.734;23.298;2023-04-16T11:33:48;3.30;;;1.58;;
22937;SDS011;11634;42.734;23.298;2023-04-16T11:36:14;2.88;;;1.80;;
22937;SDS011;11634;42.734;23.298;2023-04-16T11:38:40;3.60;;;2.20;;
22937;SDS011;11634;42.734;23.298;2023-04-16T11:41:07;4.35;;;2.08;;
22937;SDS011;11634;42.734;23.298;2023-04-16T11:43:33;3.42;;;2.20;;
22937;SDS011;11634;42.734;23.298;2023-04-16T11:46:08;4.35;;;2.20;;
22937;SDS011;11634;42.734;23.298;2023-04-16T11:48:50;4.07;;;1.98;;
22937;SDS011;11634;42.734;23.298;2023-04-16T11:51:16;6.63;;;2.10;;
22937;SDS011;11634;42.734;23.298;2023-04-16T11:53:49;2.50;;;1.60;;
22937;SDS011;11634;42.734;23.298;2023-04-16T11:56:26;4.65;;;2.20;;
22937;SDS011;11634;42.734;23.298;2023-04-16T11:59:10;6.88;;;2.03;;
22937;SDS011;11634;42.734;23.298;2023-04-16T12:01:38;4.35;;;2.10;;
22937;SDS011;11634;42.734;23.298;2023-04-16T12:04:22;3.88;;;1.70;;
22937;SDS011;11634;42.734;23.298;2023-04-16T12:09:36;5.07;;;2.28;;
22937;SDS011;11634;42.734;23.298;2023-04-16T12:12:02;5.63;;;1.80;;
22937;SDS011;11634;42.734;23.298;2023-04-16T12:14:28;4.60;;;1.90;;
22937;SDS011;11634;42.734;23.298;2023-04-16T12:16:55;5.28;;;2.00;;
22937;SDS011;11634;42.734;23.298;2023-04-16T12:19:27;3.28;;;1.70;;
22937;SDS011;11634;42.734;23.298;2023-04-16T12:21:52;5.80;;;1.70;;
22937;SDS011;11634;42.734;23.298;2023-04-16T12:24:19;5.85;;;1.90;;
22937;SDS011;11634;42.734;23.298;2023-04-16T12:26:45;2.42;;;1.65;;
22937;SDS011;11634;42.734;23.298;2023-04-16T12:29:25;4.05;;;1.80;;
22937;SDS011;11634;42.734;23.298;2023-04-16T12:31:52;5.88;;;1.73;;
22937;SDS011;11634;42.734;23.298;2023-04-16T12:34:19;3.50;;;1.88;;
22937;SDS011;11634;42.734;23.298;2023-04-16T12:36:46;4.47;;;1.85;;
22937;SDS011;11634;42.734;23.298;2023-04-16T12:39:13;4.13;;;1.92;;
22937;SDS011;11634;42.734;23.298;2023-04-16T12:41:41;4.63;;;1.63;;
22937;SDS011;11634;42.734;23.298;2023-04-16T12:44:08;3.08;;;1.40;;
22937;SDS011;11634;42.734;23.298;2023-04-16T12:46:39;4.22;;;1.30;;
22937;SDS011;11634;42.734;23.298;2023-04-16T12:49:05;2.78;;;1.50;;
22937;SDS011;11634;42.734;23.298;2023-04-16T12:51:32;4.63;;;1.42;;
22937;SDS011;11634;42.734;23.298;2023-04-16T12:53:58;2.22;;;1.30;;
22937;SDS011;11634;42.734;23.298;2023-04-16T12:56:25;4.53;;;1.52;;
22937;SDS011;11634;42.734;23.298;2023-04-16T12:58:51;2.88;;;1.40;;
22937;SDS011;11634;42.734;23.298;2023-04-16T13:01:20;5.88;;;1.65;;
22937;SDS011;11634;42.734;23.298;2023-04-16T13:04:06;4.00;;;1.50;;
22937;SDS011;11634;42.734;23.298;2023-04-16T13:06:32;7.47;;;2.00;;
22937;SDS011;11634;42.734;23.298;2023-04-16T13:08:57;3.28;;;1.90;;
22937;SDS011;11634;42.734;23.298;2023-04-16T13:11:23;6.45;;;1.77;;
22937;SDS011;11634;42.734;23.298;2023-04-16T13:13:49;5.38;;;2.22;;
22937;SDS011;11634;42.734;23.298;2023-04-16T13:16:15;3.30;;;2.28;;
22937;SDS011;11634;42.734;23.298;2023-04-16T13:18:40;4.07;;;2.22;;
22937;SDS011;11634;42.734;23.298;2023-04-16T13:21:06;4.93;;;1.95;;
22937;SDS011;11634;42.734;23.298;2023-04-16T13:23:33;5.38;;;2.35;;
22937;SDS011;11634;42.734;23.298;2023-04-16T13:25:59;5.15;;;2.22;;
22937;SDS011;11634;42.734;23.298;2023-04-16T13:28:25;5.15;;;2.85;;
22937;SDS011;11634;42.734;23.298;2023-04-16T13:30:51;5.22;;;2.42;;
22937;SDS011;11634;42.734;23.298;2023-04-16T13:33:17;2.85;;;2.13;;
22937;SDS011;11634;42.734;23.298;2023-04-16T13:35:43;3.55;;;2.03;;
22937;SDS011;11634;42.734;23.298;2023-04-16T13:38:09;3.40;;;2.15;;
22937;SDS011;11634;42.734;23.298;2023-04-16T13:40:35;5.80;;;2.20;;
22937;SDS011;11634;42.734;23.298;2023-04-16T13:43:00;3.92;;;2.33;;
22937;SDS011;11634;42.734;23.298;2023-04-16T13:45:26;5.45;;;2.15;;
22937;SDS011;11634;42.734;23.298;2023-04-16T13:48:11;3.90;;;1.80;;
22937;SDS011;11634;42.734;23.298;2023-04-16T13:50:37;4.38;;;1.80;;
22937;SDS011;11634;42.734;23.298;2023-04-16T13:53:05;2.80;;;2.17;;
22937;SDS011;11634;42.734;23.298;2023-04-16T13:55:33;5.80;;;2.40;;
22937;SDS011;11634;42.734;23.298;2023-04-16T13:58:00;4.80;;;2.20;;
22937;SDS011;11634;42.734;23.298;2023-04-16T14:00:25;5.65;;;2.22;;
22937;SDS011;11634;42.734;23.298;2023-04-16T14:02:51;3.90;;;2.05;;
22937;SDS011;11634;42.734;23.298;2023-04-16T14:05:17;5.65;;;2.08;;
22937;SDS011;11634;42.734;23.298;2023-04-16T14:07:43;4.95;;;2.45;;
22937;SDS011;11634;42.734;23.298;2023-04-16T14:10:10;5.32;;;2.53;;
22937;SDS011;11634;42.734;23.298;2023-04-16T14:12:36;4.25;;;2.05;;
22937;SDS011;11634;42.734;23.298;2023-04-16T14:15:03;7.93;;;2.10;;
22937;SDS011;11634;42.734;23.298;2023-04-16T14:17:34;2.60;;;1.83;;
22937;SDS011;11634;42.734;23.298;2023-04-16T14:20:01;3.03;;;1.40;;
22937;SDS011;11634;42.734;23.298;2023-04-16T14:22:29;5.00;;;2.10;;
22937;SDS011;11634;42.734;23.298;2023-04-16T14:24:54;4.22;;;2.70;;
22937;SDS011;11634;42.734;23.298;2023-04-16T14:27:22;4.05;;;2.45;;
22937;SDS011;11634;42.734;23.298;2023-04-16T14:29:49;5.15;;;2.10;;
22937;SDS011;11634;42.734;23.298;2023-04-16T14:32:16;6.05;;;2.28;;
22937;SDS011;11634;42.734;23.298;2023-04-16T14:34:41;5.28;;;2.60;;
22937;SDS011;11634;42.734;23.298;2023-04-16T14:37:07;4.45;;;2.17;;
22937;SDS011;11634;42.734;23.298;2023-04-16T14:39:33;5.07;;;2.08;;
22937;SDS011;11634;42.734;23.298;2023-04-16T14:41:59;4.57;;;2.00;;
22937;SDS011;11634;42.734;23.298;2023-04-16T14:44:24;3.08;;;2.20;;
22937;SDS011;11634;42.734;23.298;2023-04-16T14:46:50;3.45;;;2.30;;
22937;SDS011;11634;42.734;23.298;2023-04-16T14:49:21;6.20;;;2.40;;
22937;SDS011;11634;42.734;23.298;2023-04-16T14:51:47;4.75;;;2.50;;